sensor_id;sensor_type;location;lat;lon;timestamp;temperature;humidity
3548;DHT22;1788;49.400;11.092;2023-03-29T00:00:44;7.90;40.90
3548;DHT22;1788;49.400;11.092;2023-03-29T00:03:10;7.80;40.90
3548;DHT22;1788;49.400;11.092;2023-03-29T00:05:37;7.90;41.00
3548;DHT22;1788;49.400;11.092;2023-03-29T00:08:04;7.90;41.00
3548;DHT22;1788;49.400;11.092;2023-03-29T00:10:31;7.80;41.00
3548;DHT22;1788;49.400;11.092;2023-03-29T00:12:57;7.80;41.10
3548;DHT22;1788;49.400;11.092;2023-03-29T00:15:23;7.80;41.10
3548;DHT22;1788;49.400;11.092;2023-03-29T00:17:50;7.80;41.20
3548;DHT22;1788;49.400;11.092;2023-03-29T00:20:17;7.80;41.30
3548;DHT22;1788;49.400;11.092;2023-03-29T00:22:44;7.80;41.20
3548;DHT22;1788;49.400;11.092;2023-03-29T00:25:11;7.80;41.30
3548;DHT22;1788;49.400;11.092;2023-03-29T00:27:37;7.80;41.40
3548;DHT22;1788;49.400;11.092;2023-03-29T00:30:04;7.80;41.50
3548;DHT22;1788;49.400;11.092;2023-03-29T00:32:31;7.90;42.30
3548;DHT22;1788;49.400;11.092;2023-03-29T00:34:58;7.80;41.60
3548;DHT22;1788;49.400;11.092;2023-03-29T00:37:24;7.90;41.80
3548;DHT22;1788;49.400;11.092;2023-03-29T00:39:51;7.90;41.80
3548;DHT22;1788;49.400;11.092;2023-03-29T00:42:19;8.00;41.90
3548;DHT22;1788;49.400;11.092;2023-03-29T00:47:13;8.10;42.10
3548;DHT22;1788;49.400;11.092;2023-03-29T00:49:39;8.10;42.00
3548;DHT22;1788;49.400;11.092;2023-03-29T00:52:06;8.10;42.10
3548;DHT22;1788;49.400;11.092;2023-03-29T00:54:33;8.10;42.10
3548;DHT22;1788;49.400;11.092;2023-03-29T00:56:59;8.10;42.10
3548;DHT22;1788;49.400;11.092;2023-03-29T00:59:27;8.20;42.20
3548;DHT22;1788;49.400;11.092;2023-03-29T01:06:51;8.20;42.30
3548;DHT22;1788;49.400;11.092;2023-03-29T01:09:14;8.20;42.40
3548;DHT22;1788;49.400;11.092;2023-03-29T01:11:43;8.20;42.40
3548;DHT22;1788;49.400;11.092;2023-03-29T01:16:35;8.20;42.60
3548;DHT22;1788;49.400;11.092;2023-03-29T01:19:02;8.20;42.70
3548;DHT22;1788;49.400;11.092;2023-03-29T01:23:59;8.20;42.90
3548;DHT22;1788;49.400;11.092;2023-03-29T01:26:22;8.20;42.90
3548;DHT22;1788;49.400;11.092;2023-03-29T01:28:50;8.20;43.00
3548;DHT22;1788;49.400;11.092;2023-03-29T01:38:39;8.10;43.20
3548;DHT22;1788;49.400;11.092;2023-03-29T01:41:02;8.10;43.20
3548;DHT22;1788;49.400;11.092;2023-03-29T01:45:59;8.10;43.20
3548;DHT22;1788;49.400;11.092;2023-03-29T01:48:26;8.10;43.30
3548;DHT22;1788;49.400;11.092;2023-03-29T01:50:51;8.10;43.30
3548;DHT22;1788;49.400;11.092;2023-03-29T01:58:11;8.20;43.70
3548;DHT22;1788;49.400;11.092;2023-03-29T02:00:38;8.20;43.70
3548;DHT22;1788;49.400;11.092;2023-03-29T02:05:31;8.30;44.00
3548;DHT22;1788;49.400;11.092;2023-03-29T02:07:59;8.30;44.20
3548;DHT22;1788;49.400;11.092;2023-03-29T02:10:25;8.30;44.20
3548;DHT22;1788;49.400;11.092;2023-03-29T02:12:52;8.30;44.30
3548;DHT22;1788;49.400;11.092;2023-03-29T02:15:19;8.30;44.50
3548;DHT22;1788;49.400;11.092;2023-03-29T02:17:45;8.30;44.60
3548;DHT22;1788;49.400;11.092;2023-03-29T02:22:42;8.30;45.00
3548;DHT22;1788;49.400;11.092;2023-03-29T02:25:05;8.30;45.20
3548;DHT22;1788;49.400;11.092;2023-03-29T02:27:32;8.30;45.40
3548;DHT22;1788;49.400;11.092;2023-03-29T02:29:58;8.30;45.60
3548;DHT22;1788;49.400;11.092;2023-03-29T02:32:28;8.30;45.80
3548;DHT22;1788;49.400;11.092;2023-03-29T02:37:18;8.20;46.20
3548;DHT22;1788;49.400;11.092;2023-03-29T02:39:46;8.20;46.50
3548;DHT22;1788;49.400;11.092;2023-03-29T02:42:11;8.20;46.70
3548;DHT22;1788;49.400;11.092;2023-03-29T02:44:39;8.10;47.10
3548;DHT22;1788;49.400;11.092;2023-03-29T02:49:32;8.10;47.40
3548;DHT22;1788;49.400;11.092;2023-03-29T02:52:01;8.10;47.60
3548;DHT22;1788;49.400;11.092;2023-03-29T02:54:26;8.00;47.90
3548;DHT22;1788;49.400;11.092;2023-03-29T02:56:54;8.00;47.90
3548;DHT22;1788;49.400;11.092;2023-03-29T02:59:20;7.90;48.30
3548;DHT22;1788;49.400;11.092;2023-03-29T03:01:48;8.00;48.40
3548;DHT22;1788;49.400;11.092;2023-03-29T03:04:14;7.90;48.60
3548;DHT22;1788;49.400;11.092;2023-03-29T03:06:41;7.90;48.80
3548;DHT22;1788;49.400;11.092;2023-03-29T03:09:07;7.80;49.00
3548;DHT22;1788;49.400;11.092;2023-03-29T03:11:34;7.80;49.30
3548;DHT22;1788;49.400;11.092;2023-03-29T03:14:01;7.70;49.40
3548;DHT22;1788;49.400;11.092;2023-03-29T03:16:27;7.70;49.70
3548;DHT22;1788;49.400;11.092;2023-03-29T03:18:54;7.70;49.80
3548;DHT22;1788;49.400;11.092;2023-03-29T03:21:21;7.70;50.00
3548;DHT22;1788;49.400;11.092;2023-03-29T03:23:47;7.70;50.20
3548;DHT22;1788;49.400;11.092;2023-03-29T03:26:14;7.70;50.40
3548;DHT22;1788;49.400;11.092;2023-03-29T03:28:41;7.60;50.50
3548;DHT22;1788;49.400;11.092;2023-03-29T03:31:09;7.60;50.60
3548;DHT22;1788;49.400;11.092;2023-03-29T03:33:35;7.60;50.80
3548;DHT22;1788;49.400;11.092;2023-03-29T03:36:02;7.60;50.90
3548;DHT22;1788;49.400;11.092;2023-03-29T03:38:29;7.60;51.10
3548;DHT22;1788;49.400;11.092;2023-03-29T03:40:56;7.70;51.30
3548;DHT22;1788;49.400;11.092;2023-03-29T03:43:22;7.60;51.30
3548;DHT22;1788;49.400;11.092;2023-03-29T03:45:49;7.70;51.50
3548;DHT22;1788;49.400;11.092;2023-03-29T03:48:16;7.70;51.60
3548;DHT22;1788;49.400;11.092;2023-03-29T03:53:10;7.70;51.80
3548;DHT22;1788;49.400;11.092;2023-03-29T03:55:36;7.80;51.90
3548;DHT22;1788;49.400;11.092;2023-03-29T03:58:04;7.80;51.90
3548;DHT22;1788;49.400;11.092;2023-03-29T04:00:30;7.80;52.00
3548;DHT22;1788;49.400;11.092;2023-03-29T04:02:58;7.80;51.60
3548;DHT22;1788;49.400;11.092;2023-03-29T04:05:24;7.80;52.20
3548;DHT22;1788;49.400;11.092;2023-03-29T04:07:51;7.80;52.20
3548;DHT22;1788;49.400;11.092;2023-03-29T04:10:18;7.80;52.30
3548;DHT22;1788;49.400;11.092;2023-03-29T04:12:44;7.70;52.40
3548;DHT22;1788;49.400;11.092;2023-03-29T04:15:12;7.70;52.40
3548;DHT22;1788;49.400;11.092;2023-03-29T04:17:39;7.70;52.60
3548;DHT22;1788;49.400;11.092;2023-03-29T04:20:06;7.70;52.70
3548;DHT22;1788;49.400;11.092;2023-03-29T04:22:32;7.70;52.80
3548;DHT22;1788;49.400;11.092;2023-03-29T04:24:59;7.60;52.90
3548;DHT22;1788;49.400;11.092;2023-03-29T04:27:26;7.60;53.10
3548;DHT22;1788;49.400;11.092;2023-03-29T04:29:53;7.60;53.00
3548;DHT22;1788;49.400;11.092;2023-03-29T04:32:20;7.60;53.20
3548;DHT22;1788;49.400;11.092;2023-03-29T04:34:47;7.60;53.20
3548;DHT22;1788;49.400;11.092;2023-03-29T04:37:14;7.60;53.30
3548;DHT22;1788;49.400;11.092;2023-03-29T04:39:40;7.60;53.40
3548;DHT22;1788;49.400;11.092;2023-03-29T04:42:07;7.60;53.50
3548;DHT22;1788;49.400;11.092;2023-03-29T04:44:34;7.60;53.70
3548;DHT22;1788;49.400;11.092;2023-03-29T04:47:01;7.50;53.60
3548;DHT22;1788;49.400;11.092;2023-03-29T04:49:27;7.50;53.60
3548;DHT22;1788;49.400;11.092;2023-03-29T04:51:54;7.50;53.80
3548;DHT22;1788;49.400;11.092;2023-03-29T04:54:21;7.50;53.80
3548;DHT22;1788;49.400;11.092;2023-03-29T04:56:48;7.50;54.20
3548;DHT22;1788;49.400;11.092;2023-03-29T04:59:15;7.50;54.00
3548;DHT22;1788;49.400;11.092;2023-03-29T05:01:41;7.50;54.10
3548;DHT22;1788;49.400;11.092;2023-03-29T05:04:09;7.50;54.10
3548;DHT22;1788;49.400;11.092;2023-03-29T05:06:36;7.40;54.10
3548;DHT22;1788;49.400;11.092;2023-03-29T05:09:03;7.40;54.20
3548;DHT22;1788;49.400;11.092;2023-03-29T05:11:29;7.40;54.20
3548;DHT22;1788;49.400;11.092;2023-03-29T05:13:56;7.40;54.40
3548;DHT22;1788;49.400;11.092;2023-03-29T05:16:23;7.30;54.50
3548;DHT22;1788;49.400;11.092;2023-03-29T05:18:51;7.30;54.60
3548;DHT22;1788;49.400;11.092;2023-03-29T05:21:18;7.30;54.60
3548;DHT22;1788;49.400;11.092;2023-03-29T05:23:44;7.30;54.60
3548;DHT22;1788;49.400;11.092;2023-03-29T05:26:11;7.30;54.70
3548;DHT22;1788;49.400;11.092;2023-03-29T05:28:37;7.30;54.70
3548;DHT22;1788;49.400;11.092;2023-03-29T05:31:04;7.30;54.70
3548;DHT22;1788;49.400;11.092;2023-03-29T05:33:31;7.30;54.80
3548;DHT22;1788;49.400;11.092;2023-03-29T05:35:59;7.20;54.70
3548;DHT22;1788;49.400;11.092;2023-03-29T05:38:24;7.20;54.80
3548;DHT22;1788;49.400;11.092;2023-03-29T05:40:51;7.20;54.90
3548;DHT22;1788;49.400;11.092;2023-03-29T05:43:18;7.10;54.80
3548;DHT22;1788;49.400;11.092;2023-03-29T05:45:44;7.10;54.90
3548;DHT22;1788;49.400;11.092;2023-03-29T05:48:11;7.10;55.00
3548;DHT22;1788;49.400;11.092;2023-03-29T05:50:38;7.10;55.00
3548;DHT22;1788;49.400;11.092;2023-03-29T05:53:04;7.10;55.00
3548;DHT22;1788;49.400;11.092;2023-03-29T05:55:32;7.10;55.10
3548;DHT22;1788;49.400;11.092;2023-03-29T05:57:58;7.10;55.10
3548;DHT22;1788;49.400;11.092;2023-03-29T06:00:26;7.20;55.20
3548;DHT22;1788;49.400;11.092;2023-03-29T06:02:52;7.20;55.20
3548;DHT22;1788;49.400;11.092;2023-03-29T06:05:20;7.20;55.20
3548;DHT22;1788;49.400;11.092;2023-03-29T06:07:47;7.20;55.30
3548;DHT22;1788;49.400;11.092;2023-03-29T06:10:14;7.30;55.30
3548;DHT22;1788;49.400;11.092;2023-03-29T06:12:40;7.30;55.40
3548;DHT22;1788;49.400;11.092;2023-03-29T06:15:08;7.30;55.40
3548;DHT22;1788;49.400;11.092;2023-03-29T06:17:34;7.30;55.40
3548;DHT22;1788;49.400;11.092;2023-03-29T06:20:01;7.40;55.40
3548;DHT22;1788;49.400;11.092;2023-03-29T06:22:28;7.40;55.50
3548;DHT22;1788;49.400;11.092;2023-03-29T06:24:54;7.40;55.40
3548;DHT22;1788;49.400;11.092;2023-03-29T06:27:21;7.40;55.50
3548;DHT22;1788;49.400;11.092;2023-03-29T06:29:47;7.50;55.60
3548;DHT22;1788;49.400;11.092;2023-03-29T06:32:15;7.50;55.50
3548;DHT22;1788;49.400;11.092;2023-03-29T06:34:41;7.60;55.60
3548;DHT22;1788;49.400;11.092;2023-03-29T06:37:08;7.60;55.60
3548;DHT22;1788;49.400;11.092;2023-03-29T06:39:35;7.70;55.60
3548;DHT22;1788;49.400;11.092;2023-03-29T06:42:02;7.70;55.60
3548;DHT22;1788;49.400;11.092;2023-03-29T06:44:29;7.80;55.60
3548;DHT22;1788;49.400;11.092;2023-03-29T06:46:55;7.80;55.70
3548;DHT22;1788;49.400;11.092;2023-03-29T06:49:22;7.90;55.70
3548;DHT22;1788;49.400;11.092;2023-03-29T06:51:49;7.90;56.20
3548;DHT22;1788;49.400;11.092;2023-03-29T06:54:16;8.00;55.70
3548;DHT22;1788;49.400;11.092;2023-03-29T06:56:43;8.00;55.70
3548;DHT22;1788;49.400;11.092;2023-03-29T06:59:10;8.10;55.80
3548;DHT22;1788;49.400;11.092;2023-03-29T07:01:38;8.40;56.00
3548;DHT22;1788;49.400;11.092;2023-03-29T07:04:04;8.40;56.00
3548;DHT22;1788;49.400;11.092;2023-03-29T07:06:31;8.50;55.80
3548;DHT22;1788;49.400;11.092;2023-03-29T07:08:58;8.50;55.70
3548;DHT22;1788;49.400;11.092;2023-03-29T07:11:25;8.50;55.60
3548;DHT22;1788;49.400;11.092;2023-03-29T07:13:57;8.60;55.60
3548;DHT22;1788;49.400;11.092;2023-03-29T07:16:24;8.60;55.60
3548;DHT22;1788;49.400;11.092;2023-03-29T07:18:50;8.60;55.60
3548;DHT22;1788;49.400;11.092;2023-03-29T07:21:18;8.60;55.60
3548;DHT22;1788;49.400;11.092;2023-03-29T07:23:45;8.70;55.60
3548;DHT22;1788;49.400;11.092;2023-03-29T07:26:11;8.70;55.60
3548;DHT22;1788;49.400;11.092;2023-03-29T07:28:38;8.70;55.70
3548;DHT22;1788;49.400;11.092;2023-03-29T07:31:06;8.70;55.60
3548;DHT22;1788;49.400;11.092;2023-03-29T07:33:32;8.80;55.70
3548;DHT22;1788;49.400;11.092;2023-03-29T07:35:58;8.80;55.60
3548;DHT22;1788;49.400;11.092;2023-03-29T07:38:26;8.90;55.60
3548;DHT22;1788;49.400;11.092;2023-03-29T07:40:53;8.90;55.60
3548;DHT22;1788;49.400;11.092;2023-03-29T07:43:19;9.00;55.70
3548;DHT22;1788;49.400;11.092;2023-03-29T07:45:46;9.00;55.60
3548;DHT22;1788;49.400;11.092;2023-03-29T07:48:13;9.10;55.70
3548;DHT22;1788;49.400;11.092;2023-03-29T07:50:40;9.10;55.60
3548;DHT22;1788;49.400;11.092;2023-03-29T07:53:06;9.20;55.60
3548;DHT22;1788;49.400;11.092;2023-03-29T07:55:33;9.30;55.60
3548;DHT22;1788;49.400;11.092;2023-03-29T07:57:59;9.40;55.50
3548;DHT22;1788;49.400;11.092;2023-03-29T08:00:27;9.60;55.90
3548;DHT22;1788;49.400;11.092;2023-03-29T08:02:53;9.60;55.50
3548;DHT22;1788;49.400;11.092;2023-03-29T08:05:21;9.60;55.40
3548;DHT22;1788;49.400;11.092;2023-03-29T08:07:47;9.70;55.30
3548;DHT22;1788;49.400;11.092;2023-03-29T08:10:14;9.80;55.30
3548;DHT22;1788;49.400;11.092;2023-03-29T08:12:40;9.90;55.30
3548;DHT22;1788;49.400;11.092;2023-03-29T08:15:07;9.90;55.20
3548;DHT22;1788;49.400;11.092;2023-03-29T08:17:34;10.00;54.30
3548;DHT22;1788;49.400;11.092;2023-03-29T08:20:01;10.10;54.30
3548;DHT22;1788;49.400;11.092;2023-03-29T08:22:28;10.30;54.70
3548;DHT22;1788;49.400;11.092;2023-03-29T08:24:54;10.30;54.20
3548;DHT22;1788;49.400;11.092;2023-03-29T08:27:21;10.40;54.10
3548;DHT22;1788;49.400;11.092;2023-03-29T08:29:48;10.50;54.10
3548;DHT22;1788;49.400;11.092;2023-03-29T08:32:14;10.60;53.90
3548;DHT22;1788;49.400;11.092;2023-03-29T08:34:42;10.80;53.80
3548;DHT22;1788;49.400;11.092;2023-03-29T08:37:08;10.80;53.80
3548;DHT22;1788;49.400;11.092;2023-03-29T08:39:35;10.90;53.80
3548;DHT22;1788;49.400;11.092;2023-03-29T08:44:33;11.20;53.80
3548;DHT22;1788;49.400;11.092;2023-03-29T08:49:22;11.50;53.70
3548;DHT22;1788;49.400;11.092;2023-03-29T08:51:51;11.60;53.50
3548;DHT22;1788;49.400;11.092;2023-03-29T08:54:17;11.60;53.30
3548;DHT22;1788;49.400;11.092;2023-03-29T08:56:43;11.80;53.10
3548;DHT22;1788;49.400;11.092;2023-03-29T09:01:37;12.10;53.00
3548;DHT22;1788;49.400;11.092;2023-03-29T09:04:06;12.00;52.90
3548;DHT22;1788;49.400;11.092;2023-03-29T09:06:31;12.50;52.90
3548;DHT22;1788;49.400;11.092;2023-03-29T09:08:58;12.50;52.80
3548;DHT22;1788;49.400;11.092;2023-03-29T09:13:54;13.00;52.30
3548;DHT22;1788;49.400;11.092;2023-03-29T09:21:14;13.70;51.00
3548;DHT22;1788;49.400;11.092;2023-03-29T09:35:57;14.00;49.10
3548;DHT22;1788;49.400;11.092;2023-03-29T09:38:20;14.10;49.00
3548;DHT22;1788;49.400;11.092;2023-03-29T09:40:48;14.20;48.70
3548;DHT22;1788;49.400;11.092;2023-03-29T09:43:15;14.30;48.50
3548;DHT22;1788;49.400;11.092;2023-03-29T09:45:41;14.30;48.00
3548;DHT22;1788;49.400;11.092;2023-03-29T09:48:09;14.30;47.90
3548;DHT22;1788;49.400;11.092;2023-03-29T09:50:37;14.30;47.70
3548;DHT22;1788;49.400;11.092;2023-03-29T09:53:03;14.30;47.60
3548;DHT22;1788;49.400;11.092;2023-03-29T09:55:30;14.30;47.50
3548;DHT22;1788;49.400;11.092;2023-03-29T10:00:23;14.40;47.70
3548;DHT22;1788;49.400;11.092;2023-03-29T10:02:51;14.40;47.20
3548;DHT22;1788;49.400;11.092;2023-03-29T10:05:17;14.50;46.80
3548;DHT22;1788;49.400;11.092;2023-03-29T10:07:45;14.50;46.80
3548;DHT22;1788;49.400;11.092;2023-03-29T10:12:38;14.50;46.70
3548;DHT22;1788;49.400;11.092;2023-03-29T10:15:05;14.50;46.50
3548;DHT22;1788;49.400;11.092;2023-03-29T10:17:37;14.50;46.50
3548;DHT22;1788;49.400;11.092;2023-03-29T10:22:28;14.50;46.20
3548;DHT22;1788;49.400;11.092;2023-03-29T10:24:53;14.40;46.10
3548;DHT22;1788;49.400;11.092;2023-03-29T10:29:46;14.30;46.10
3548;DHT22;1788;49.400;11.092;2023-03-29T10:32:13;14.30;46.00
3548;DHT22;1788;49.400;11.092;2023-03-29T10:34:39;14.30;45.90
3548;DHT22;1788;49.400;11.092;2023-03-29T10:37:06;14.20;45.90
3548;DHT22;1788;49.400;11.092;2023-03-29T10:39:33;14.20;45.90
3548;DHT22;1788;49.400;11.092;2023-03-29T10:42:01;14.20;45.90
3548;DHT22;1788;49.400;11.092;2023-03-29T10:46:54;14.20;45.90
3548;DHT22;1788;49.400;11.092;2023-03-29T10:49:22;14.30;45.90
3548;DHT22;1788;49.400;11.092;2023-03-29T10:51:49;14.30;45.90
3548;DHT22;1788;49.400;11.092;2023-03-29T10:54:17;14.40;45.90
3548;DHT22;1788;49.400;11.092;2023-03-29T10:56:45;14.40;45.80
3548;DHT22;1788;49.400;11.092;2023-03-29T11:04:05;14.60;45.80
3548;DHT22;1788;49.400;11.092;2023-03-29T11:08:57;14.80;45.70
3548;DHT22;1788;49.400;11.092;2023-03-29T11:16:21;15.50;45.30
3548;DHT22;1788;49.400;11.092;2023-03-29T11:23:44;15.80;45.00
3548;DHT22;1788;49.400;11.092;2023-03-29T11:26:11;16.00;44.90
3548;DHT22;1788;49.400;11.092;2023-03-29T11:43:22;16.60;44.00
3548;DHT22;1788;49.400;11.092;2023-03-29T11:48:17;16.70;44.00
3548;DHT22;1788;49.400;11.092;2023-03-29T11:50:46;16.80;43.80
3548;DHT22;1788;49.400;11.092;2023-03-29T11:53:12;16.90;44.30
3548;DHT22;1788;49.400;11.092;2023-03-29T11:55:38;16.80;43.60
3548;DHT22;1788;49.400;11.092;2023-03-29T12:10:23;16.80;43.70
3548;DHT22;1788;49.400;11.092;2023-03-29T12:15:18;16.80;43.80
3548;DHT22;1788;49.400;11.092;2023-03-29T12:20:21;16.80;43.80
3548;DHT22;1788;49.400;11.092;2023-03-29T12:22:48;16.70;43.70
3548;DHT22;1788;49.400;11.092;2023-03-29T12:25:16;16.70;43.70
3548;DHT22;1788;49.400;11.092;2023-03-29T12:42:23;16.60;44.10
3548;DHT22;1788;49.400;11.092;2023-03-29T12:44:52;16.70;44.30
3548;DHT22;1788;49.400;11.092;2023-03-29T12:49:44;16.70;44.60
3548;DHT22;1788;49.400;11.092;2023-03-29T12:54:37;16.70;44.70
3548;DHT22;1788;49.400;11.092;2023-03-29T13:01:59;16.30;45.90
3548;DHT22;1788;49.400;11.092;2023-03-29T13:09:19;16.20;45.60
3548;DHT22;1788;49.400;11.092;2023-03-29T13:11:50;16.10;45.70
3548;DHT22;1788;49.400;11.092;2023-03-29T13:14:12;16.30;46.00
3548;DHT22;1788;49.400;11.092;2023-03-29T13:16:39;16.30;46.00
3548;DHT22;1788;49.400;11.092;2023-03-29T13:24:02;16.50;46.00
3548;DHT22;1788;49.400;11.092;2023-03-29T13:28:56;16.40;45.90
3548;DHT22;1788;49.400;11.092;2023-03-29T13:36:17;16.20;46.30
3548;DHT22;1788;49.400;11.092;2023-03-29T13:43:35;16.30;46.40
3548;DHT22;1788;49.400;11.092;2023-03-29T13:46:03;16.60;46.40
3548;DHT22;1788;49.400;11.092;2023-03-29T13:48:30;16.50;46.30
3548;DHT22;1788;49.400;11.092;2023-03-29T13:55:49;16.50;46.00
3548;DHT22;1788;49.400;11.092;2023-03-29T13:58:23;16.50;46.30
3548;DHT22;1788;49.400;11.092;2023-03-29T14:03:11;16.50;46.40
3548;DHT22;1788;49.400;11.092;2023-03-29T14:05:37;16.50;46.30
3548;DHT22;1788;49.400;11.092;2023-03-29T14:10:31;16.40;46.20
3548;DHT22;1788;49.400;11.092;2023-03-29T14:12:56;16.50;46.20
3548;DHT22;1788;49.400;11.092;2023-03-29T14:15:24;16.70;46.30
3548;DHT22;1788;49.400;11.092;2023-03-29T14:20:18;16.80;46.10
3548;DHT22;1788;49.400;11.092;2023-03-29T14:22:44;16.80;46.00
3548;DHT22;1788;49.400;11.092;2023-03-29T14:25:13;16.80;46.00
3548;DHT22;1788;49.400;11.092;2023-03-29T14:27:39;16.80;46.00
3548;DHT22;1788;49.400;11.092;2023-03-29T14:32:32;16.70;46.00
3548;DHT22;1788;49.400;11.092;2023-03-29T14:34:59;16.70;46.10
3548;DHT22;1788;49.400;11.092;2023-03-29T14:39:51;16.60;46.10
3548;DHT22;1788;49.400;11.092;2023-03-29T14:42:19;16.60;46.10
3548;DHT22;1788;49.400;11.092;2023-03-29T14:44:45;16.60;46.10
3548;DHT22;1788;49.400;11.092;2023-03-29T14:47:15;16.50;46.00
3548;DHT22;1788;49.400;11.092;2023-03-29T14:49:39;16.50;46.00
3548;DHT22;1788;49.400;11.092;2023-03-29T14:52:05;16.50;46.00
3548;DHT22;1788;49.400;11.092;2023-03-29T14:54:32;16.50;46.00
3548;DHT22;1788;49.400;11.092;2023-03-29T14:56:58;16.50;46.00
3548;DHT22;1788;49.400;11.092;2023-03-29T14:59:28;16.60;46.10
3548;DHT22;1788;49.400;11.092;2023-03-29T15:01:53;16.60;46.00
3548;DHT22;1788;49.400;11.092;2023-03-29T15:04:20;16.60;45.80
3548;DHT22;1788;49.400;11.092;2023-03-29T15:06:47;16.70;45.80
3548;DHT22;1788;49.400;11.092;2023-03-29T15:11:41;16.70;45.50
3548;DHT22;1788;49.400;11.092;2023-03-29T15:14:13;16.70;45.90
3548;DHT22;1788;49.400;11.092;2023-03-29T15:16:38;16.70;45.80
3548;DHT22;1788;49.400;11.092;2023-03-29T15:19:03;16.70;45.80
3548;DHT22;1788;49.400;11.092;2023-03-29T15:21:32;16.60;45.70
3548;DHT22;1788;49.400;11.092;2023-03-29T15:23:58;16.60;45.70
3548;DHT22;1788;49.400;11.092;2023-03-29T15:28:53;16.50;45.80
3548;DHT22;1788;49.400;11.092;2023-03-29T15:31:19;16.50;45.80
3548;DHT22;1788;49.400;11.092;2023-03-29T15:33:45;16.60;45.80
3548;DHT22;1788;49.400;11.092;2023-03-29T15:36:12;16.70;45.80
3548;DHT22;1788;49.400;11.092;2023-03-29T15:38:39;16.70;45.70
3548;DHT22;1788;49.400;11.092;2023-03-29T15:41:06;16.90;45.70
3548;DHT22;1788;49.400;11.092;2023-03-29T15:43:33;16.90;45.70
3548;DHT22;1788;49.400;11.092;2023-03-29T15:45:59;16.90;45.60
3548;DHT22;1788;49.400;11.092;2023-03-29T15:48:26;17.00;45.60
3548;DHT22;1788;49.400;11.092;2023-03-29T15:50:52;17.10;45.60
3548;DHT22;1788;49.400;11.092;2023-03-29T15:53:20;17.20;45.50
3548;DHT22;1788;49.400;11.092;2023-03-29T15:55:47;17.20;45.50
3548;DHT22;1788;49.400;11.092;2023-03-29T15:58:14;17.20;46.20
3548;DHT22;1788;49.400;11.092;2023-03-29T16:00:41;17.20;45.40
3548;DHT22;1788;49.400;11.092;2023-03-29T16:03:08;17.20;45.30
3548;DHT22;1788;49.400;11.092;2023-03-29T16:05:33;17.20;45.30
3548;DHT22;1788;49.400;11.092;2023-03-29T16:08:00;17.20;45.20
3548;DHT22;1788;49.400;11.092;2023-03-29T16:10:27;17.20;45.20
3548;DHT22;1788;49.400;11.092;2023-03-29T16:12:53;17.10;45.20
3548;DHT22;1788;49.400;11.092;2023-03-29T16:15:20;17.00;45.20
3548;DHT22;1788;49.400;11.092;2023-03-29T16:17:47;17.00;45.30
3548;DHT22;1788;49.400;11.092;2023-03-29T16:20:14;16.90;45.40
3548;DHT22;1788;49.400;11.092;2023-03-29T16:22:41;16.80;45.30
3548;DHT22;1788;49.400;11.092;2023-03-29T16:27:34;16.70;45.40
3548;DHT22;1788;49.400;11.092;2023-03-29T16:30:00;16.70;45.50
3548;DHT22;1788;49.400;11.092;2023-03-29T16:32:27;16.70;45.50
3548;DHT22;1788;49.400;11.092;2023-03-29T16:34:54;16.70;45.60
3548;DHT22;1788;49.400;11.092;2023-03-29T16:37:20;16.60;45.60
3548;DHT22;1788;49.400;11.092;2023-03-29T16:39:47;16.60;45.60
3548;DHT22;1788;49.400;11.092;2023-03-29T16:42:14;16.60;45.70
3548;DHT22;1788;49.400;11.092;2023-03-29T16:44:41;16.60;45.70
3548;DHT22;1788;49.400;11.092;2023-03-29T16:47:09;16.60;45.80
3548;DHT22;1788;49.400;11.092;2023-03-29T16:49:35;16.50;45.70
3548;DHT22;1788;49.400;11.092;2023-03-29T16:52:02;16.60;46.00
3548;DHT22;1788;49.400;11.092;2023-03-29T16:54:29;16.60;46.00
3548;DHT22;1788;49.400;11.092;2023-03-29T16:56:56;16.50;45.90
3548;DHT22;1788;49.400;11.092;2023-03-29T16:59:23;16.50;45.90
3548;DHT22;1788;49.400;11.092;2023-03-29T17:01:50;16.50;45.60
3548;DHT22;1788;49.400;11.092;2023-03-29T17:04:18;16.50;46.10
3548;DHT22;1788;49.400;11.092;2023-03-29T17:06:45;16.50;46.00
3548;DHT22;1788;49.400;11.092;2023-03-29T17:09:12;16.40;46.10
3548;DHT22;1788;49.400;11.092;2023-03-29T17:11:39;16.40;46.10
3548;DHT22;1788;49.400;11.092;2023-03-29T17:14:06;16.40;46.20
3548;DHT22;1788;49.400;11.092;2023-03-29T17:16:33;16.40;46.30
3548;DHT22;1788;49.400;11.092;2023-03-29T17:19:00;16.30;46.30
3548;DHT22;1788;49.400;11.092;2023-03-29T17:21:28;16.20;46.40
3548;DHT22;1788;49.400;11.092;2023-03-29T17:23:54;16.20;46.30
3548;DHT22;1788;49.400;11.092;2023-03-29T17:26:21;16.20;46.40
3548;DHT22;1788;49.400;11.092;2023-03-29T17:28:48;16.20;46.50
3548;DHT22;1788;49.400;11.092;2023-03-29T17:31:15;16.10;46.50
3548;DHT22;1788;49.400;11.092;2023-03-29T17:33:41;16.10;46.70
3548;DHT22;1788;49.400;11.092;2023-03-29T17:36:08;16.10;47.10
3548;DHT22;1788;49.400;11.092;2023-03-29T17:38:35;16.00;47.20
3548;DHT22;1788;49.400;11.092;2023-03-29T17:41:02;16.00;47.10
3548;DHT22;1788;49.400;11.092;2023-03-29T17:43:29;15.90;47.30
3548;DHT22;1788;49.400;11.092;2023-03-29T17:45:56;15.90;47.30
3548;DHT22;1788;49.400;11.092;2023-03-29T17:48:23;15.90;48.20
3548;DHT22;1788;49.400;11.092;2023-03-29T17:50:50;15.90;48.20
3548;DHT22;1788;49.400;11.092;2023-03-29T17:53:17;16.20;49.30
3548;DHT22;1788;49.400;11.092;2023-03-29T17:55:44;16.10;49.30
3548;DHT22;1788;49.400;11.092;2023-03-29T17:58:11;16.20;49.40
3548;DHT22;1788;49.400;11.092;2023-03-29T18:00:38;16.20;48.90
3548;DHT22;1788;49.400;11.092;2023-03-29T18:03:05;16.20;48.80
3548;DHT22;1788;49.400;11.092;2023-03-29T18:05:32;16.10;48.70
3548;DHT22;1788;49.400;11.092;2023-03-29T18:07:58;16.00;48.60
3548;DHT22;1788;49.400;11.092;2023-03-29T18:10:24;15.90;48.50
3548;DHT22;1788;49.400;11.092;2023-03-29T18:12:52;15.80;48.50
3548;DHT22;1788;49.400;11.092;2023-03-29T18:15:18;15.80;48.50
3548;DHT22;1788;49.400;11.092;2023-03-29T18:17:45;15.70;48.50
3548;DHT22;1788;49.400;11.092;2023-03-29T18:20:12;15.60;48.00
3548;DHT22;1788;49.400;11.092;2023-03-29T18:22:39;15.50;48.50
3548;DHT22;1788;49.400;11.092;2023-03-29T18:25:05;15.50;48.70
3548;DHT22;1788;49.400;11.092;2023-03-29T18:27:32;15.40;48.90
3548;DHT22;1788;49.400;11.092;2023-03-29T18:30:00;15.40;49.40
3548;DHT22;1788;49.400;11.092;2023-03-29T18:32:27;15.40;49.00
3548;DHT22;1788;49.400;11.092;2023-03-29T18:34:53;15.30;49.10
3548;DHT22;1788;49.400;11.092;2023-03-29T18:37:21;15.30;49.40
3548;DHT22;1788;49.400;11.092;2023-03-29T18:39:47;15.20;49.30
3548;DHT22;1788;49.400;11.092;2023-03-29T18:42:15;15.30;49.60
3548;DHT22;1788;49.400;11.092;2023-03-29T18:44:41;15.20;49.50
3548;DHT22;1788;49.400;11.092;2023-03-29T18:47:10;15.20;49.80
3548;DHT22;1788;49.400;11.092;2023-03-29T18:49:36;15.20;49.80
3548;DHT22;1788;49.400;11.092;2023-03-29T18:52:03;15.20;49.80
3548;DHT22;1788;49.400;11.092;2023-03-29T18:54:29;15.20;49.90
3548;DHT22;1788;49.400;11.092;2023-03-29T18:56:56;15.20;50.00
3548;DHT22;1788;49.400;11.092;2023-03-29T18:59:32;15.20;50.00
3548;DHT22;1788;49.400;11.092;2023-03-29T19:02:02;15.10;50.00
3548;DHT22;1788;49.400;11.092;2023-03-29T19:04:28;15.20;50.10
3548;DHT22;1788;49.400;11.092;2023-03-29T19:06:55;15.20;50.10
3548;DHT22;1788;49.400;11.092;2023-03-29T19:09:21;15.20;50.10